Huvudsida
METAR-TAF:

METAR-TAF

Flygplatser :

Arlanda

Stockholm-Arlanda, Sverige

latitud: 59-39N, longitud: 017-57E, höjd: 38 m

Aktuellt väderrapport

Denna rapport gjordes för 25 minuter sedan, klockan 08:20 UTC
Vind 4 kt från väst/nordväst, varierande mellan väst och nord
Temperatur -5°C
Fuktighet 93%
Tryck 1009 hPa
Sikt 10 km eller mer
Brutna moln på en höjd av 700 ft
lätt snö

METAR: ESSA 100820Z 30004KT 280V360 9999 -SN BKN007 M05/M06 Q1009 TEMPO 4000

Tid: 09:45 (08:45 UTC)

Väderprognos

Denna rapport gjordes för 15 minuter sedan, klockan 08:30 UTC
Prognos gäller från 10 kl. 09 UTC till 11 kl. 09 UTC
Vind 4 kt från väst/nordväst
Sikt 10 km eller mer
Spridda moln på en höjd av 700 ft
Sannolikhet 40%
från 10 kl. 09 UTC till 11 kl. 09 UTC
Sikt: 3000 m
Brutna moln på en höjd av 700 ft
lätt snö

TAF: ESSA 100830Z 1009/1109 29004KT 9999 SCT007 PROB40 1009/1109 3000 -SN BKN007

Aktuella väderrapporter och prognoser från 4000 flygplatser (METAR- och TAF-rapporter).

De tillgängliga stationerna syns som gula och röda prickar på kartan.

För musen över prickarna för att se namnen på stationerna.

Klicka sedan för att få väderrapporter och prognoser.

För att ändra kartan: Klicka på de gröna knapparna med ett svart kors på för att zooma in; den gröna knappen med ett streck på för att zooma ut; eller på de gröna pilarna för angränsande kartor.


METAR-TAF: